Crowley, Texas
Current Conditions -  °F | °C
As of 2:30 AM on Friday 21 Nov 2014 (Local Time) from KFWS Reporting Station
Haze Haze  
Wind Chill: 61°   Ceiling: 700
Heat Index: 61°   Visibility: 4mi
Dew Point: 58°   Wind: 8mph
Humidity: 91%   Direction: 160°SSE
Pressure: 30.07"   Gusts: NA
Location:  32.58°N, 97.36°W
Report Text: KFWS 210830Z AUTO 16007KT 4SM BR BKN007 OVC013 16/15 A3007 RMK AO2 T01600146
Loading
Personal Weather Stations






























Interactive Weather Map New forecast layout! Learn more

10-Day Weather Forecast

Advertisements
Track Severe Weather on mobile